sensor_id;sensor_type;location;lat;lon;timestamp;P1;durP1;ratioP1;P2;durP2;ratioP2
19446;SDS011;9862;49.462;11.054;2023-02-28T00:00:34;4.25;;;3.25;;
19446;SDS011;9862;49.462;11.054;2023-02-28T00:03:02;4.95;;;2.92;;
19446;SDS011;9862;49.462;11.054;2023-02-28T00:05:29;5.25;;;3.20;;
19446;SDS011;9862;49.462;11.054;2023-02-28T00:07:56;4.47;;;3.03;;
19446;SDS011;9862;49.462;11.054;2023-02-28T00:10:25;5.80;;;3.20;;
19446;SDS011;9862;49.462;11.054;2023-02-28T00:12:53;4.80;;;3.08;;
19446;SDS011;9862;49.462;11.054;2023-02-28T00:15:22;5.07;;;2.90;;
19446;SDS011;9862;49.462;11.054;2023-02-28T00:17:49;5.15;;;2.92;;
19446;SDS011;9862;49.462;11.054;2023-02-28T00:20:16;5.65;;;2.97;;
19446;SDS011;9862;49.462;11.054;2023-02-28T00:22:44;5.28;;;3.35;;
19446;SDS011;9862;49.462;11.054;2023-02-28T00:25:13;4.53;;;3.28;;
19446;SDS011;9862;49.462;11.054;2023-02-28T00:27:43;4.55;;;3.10;;
19446;SDS011;9862;49.462;11.054;2023-02-28T00:30:10;4.65;;;2.85;;
19446;SDS011;9862;49.462;11.054;2023-02-28T00:32:38;4.95;;;3.17;;
19446;SDS011;9862;49.462;11.054;2023-02-28T00:35:05;5.13;;;3.50;;
19446;SDS011;9862;49.462;11.054;2023-02-28T00:37:33;4.32;;;3.00;;
19446;SDS011;9862;49.462;11.054;2023-02-28T00:40:00;3.63;;;2.90;;
19446;SDS011;9862;49.462;11.054;2023-02-28T00:42:29;6.53;;;3.28;;
19446;SDS011;9862;49.462;11.054;2023-02-28T00:44:57;3.90;;;3.00;;
19446;SDS011;9862;49.462;11.054;2023-02-28T00:47:25;6.47;;;3.35;;
19446;SDS011;9862;49.462;11.054;2023-02-28T00:49:51;6.70;;;3.50;;
19446;SDS011;9862;49.462;11.054;2023-02-28T00:52:18;7.07;;;4.20;;
19446;SDS011;9862;49.462;11.054;2023-02-28T00:54:44;6.18;;;3.72;;
19446;SDS011;9862;49.462;11.054;2023-02-28T00:57:11;5.78;;;3.38;;
19446;SDS011;9862;49.462;11.054;2023-02-28T00:59:37;8.43;;;4.20;;
19446;SDS011;9862;49.462;11.054;2023-02-28T01:02:05;7.35;;;3.58;;
19446;SDS011;9862;49.462;11.054;2023-02-28T01:04:32;5.43;;;3.42;;
19446;SDS011;9862;49.462;11.054;2023-02-28T01:06:59;7.45;;;3.35;;
19446;SDS011;9862;49.462;11.054;2023-02-28T01:09:25;5.10;;;3.03;;
19446;SDS011;9862;49.462;11.054;2023-02-28T01:11:52;5.97;;;3.42;;
19446;SDS011;9862;49.462;11.054;2023-02-28T01:14:18;5.57;;;3.08;;
19446;SDS011;9862;49.462;11.054;2023-02-28T01:16:45;5.85;;;3.55;;
19446;SDS011;9862;49.462;11.054;2023-02-28T01:19:13;5.82;;;2.97;;
19446;SDS011;9862;49.462;11.054;2023-02-28T01:21:39;5.80;;;3.33;;
19446;SDS011;9862;49.462;11.054;2023-02-28T01:24:06;5.43;;;3.10;;
19446;SDS011;9862;49.462;11.054;2023-02-28T01:26:33;5.78;;;3.47;;
19446;SDS011;9862;49.462;11.054;2023-02-28T01:28:59;5.88;;;3.28;;
19446;SDS011;9862;49.462;11.054;2023-02-28T01:31:26;7.15;;;3.08;;
19446;SDS011;9862;49.462;11.054;2023-02-28T01:33:52;5.38;;;3.28;;
19446;SDS011;9862;49.462;11.054;2023-02-28T01:36:21;7.32;;;3.60;;
19446;SDS011;9862;49.462;11.054;2023-02-28T01:38:49;6.15;;;3.47;;
19446;SDS011;9862;49.462;11.054;2023-02-28T01:41:17;7.05;;;3.28;;
19446;SDS011;9862;49.462;11.054;2023-02-28T01:43:53;4.72;;;3.22;;
19446;SDS011;9862;49.462;11.054;2023-02-28T01:46:29;6.07;;;3.20;;
19446;SDS011;9862;49.462;11.054;2023-02-28T01:48:58;5.47;;;3.60;;
19446;SDS011;9862;49.462;11.054;2023-02-28T01:51:31;10.60;;;3.25;;
19446;SDS011;9862;49.462;11.054;2023-02-28T01:54:04;6.60;;;3.45;;
19446;SDS011;9862;49.462;11.054;2023-02-28T01:56:38;7.45;;;3.60;;
19446;SDS011;9862;49.462;11.054;2023-02-28T01:59:10;5.10;;;3.38;;
19446;SDS011;9862;49.462;11.054;2023-02-28T02:01:40;6.20;;;3.30;;
19446;SDS011;9862;49.462;11.054;2023-02-28T02:04:07;7.70;;;3.60;;
19446;SDS011;9862;49.462;11.054;2023-02-28T02:06:36;5.50;;;3.30;;
19446;SDS011;9862;49.462;11.054;2023-02-28T02:09:04;6.00;;;3.40;;
19446;SDS011;9862;49.462;11.054;2023-02-28T02:11:31;4.53;;;2.83;;
19446;SDS011;9862;49.462;11.054;2023-02-28T02:14:05;5.28;;;3.00;;
19446;SDS011;9862;49.462;11.054;2023-02-28T02:16:51;7.35;;;3.38;;
19446;SDS011;9862;49.462;11.054;2023-02-28T02:19:36;8.23;;;4.05;;
19446;SDS011;9862;49.462;11.054;2023-02-28T02:22:23;6.68;;;3.35;;
19446;SDS011;9862;49.462;11.054;2023-02-28T02:25:11;5.95;;;3.80;;
19446;SDS011;9862;49.462;11.054;2023-02-28T02:27:48;8.27;;;3.80;;
19446;SDS011;9862;49.462;11.054;2023-02-28T02:30:43;7.97;;;4.25;;
19446;SDS011;9862;49.462;11.054;2023-02-28T02:36:19;7.00;;;3.85;;
19446;SDS011;9862;49.462;11.054;2023-02-28T02:38:50;6.03;;;3.85;;
19446;SDS011;9862;49.462;11.054;2023-02-28T02:41:23;5.60;;;4.13;;
19446;SDS011;9862;49.462;11.054;2023-02-28T02:43:58;5.57;;;4.13;;
19446;SDS011;9862;49.462;11.054;2023-02-28T02:46:32;5.97;;;3.45;;
19446;SDS011;9862;49.462;11.054;2023-02-28T02:49:08;7.15;;;3.92;;
19446;SDS011;9862;49.462;11.054;2023-02-28T02:51:38;8.65;;;4.40;;
19446;SDS011;9862;49.462;11.054;2023-02-28T02:54:07;5.40;;;3.50;;
19446;SDS011;9862;49.462;11.054;2023-02-28T02:56:40;5.28;;;3.67;;
19446;SDS011;9862;49.462;11.054;2023-02-28T02:59:11;7.00;;;4.20;;
19446;SDS011;9862;49.462;11.054;2023-02-28T03:01:40;11.10;;;4.00;;
19446;SDS011;9862;49.462;11.054;2023-02-28T03:04:08;6.03;;;3.42;;
19446;SDS011;9862;49.462;11.054;2023-02-28T03:06:39;5.22;;;3.42;;
19446;SDS011;9862;49.462;11.054;2023-02-28T03:09:06;6.45;;;3.50;;
19446;SDS011;9862;49.462;11.054;2023-02-28T03:11:34;5.00;;;3.50;;
19446;SDS011;9862;49.462;11.054;2023-02-28T03:14:07;6.10;;;3.72;;
19446;SDS011;9862;49.462;11.054;2023-02-28T03:16:59;7.47;;;3.97;;
19446;SDS011;9862;49.462;11.054;2023-02-28T03:19:45;6.53;;;3.95;;
19446;SDS011;9862;49.462;11.054;2023-02-28T03:22:23;6.97;;;4.22;;
19446;SDS011;9862;49.462;11.054;2023-02-28T03:25:02;6.80;;;3.78;;
19446;SDS011;9862;49.462;11.054;2023-02-28T03:27:35;9.13;;;4.10;;
19446;SDS011;9862;49.462;11.054;2023-02-28T03:30:09;5.53;;;4.00;;
19446;SDS011;9862;49.462;11.054;2023-02-28T03:32:38;7.93;;;4.60;;
19446;SDS011;9862;49.462;11.054;2023-02-28T03:35:12;7.40;;;4.97;;
19446;SDS011;9862;49.462;11.054;2023-02-28T03:37:49;8.82;;;4.38;;
19446;SDS011;9862;49.462;11.054;2023-02-28T03:40:19;9.75;;;4.93;;
19446;SDS011;9862;49.462;11.054;2023-02-28T03:42:49;6.65;;;4.35;;
19446;SDS011;9862;49.462;11.054;2023-02-28T03:45:22;8.63;;;4.68;;
19446;SDS011;9862;49.462;11.054;2023-02-28T03:47:52;6.05;;;4.00;;
19446;SDS011;9862;49.462;11.054;2023-02-28T03:50:24;7.75;;;4.47;;
19446;SDS011;9862;49.462;11.054;2023-02-28T03:52:58;6.50;;;4.78;;
19446;SDS011;9862;49.462;11.054;2023-02-28T03:55:37;7.90;;;5.28;;
19446;SDS011;9862;49.462;11.054;2023-02-28T03:58:11;10.27;;;5.22;;
19446;SDS011;9862;49.462;11.054;2023-02-28T04:00:45;10.07;;;5.15;;
19446;SDS011;9862;49.462;11.054;2023-02-28T04:03:14;12.23;;;6.15;;
19446;SDS011;9862;49.462;11.054;2023-02-28T04:05:46;9.90;;;6.05;;
19446;SDS011;9862;49.462;11.054;2023-02-28T04:08:17;7.57;;;4.88;;
19446;SDS011;9862;49.462;11.054;2023-02-28T04:10:43;6.90;;;4.80;;
19446;SDS011;9862;49.462;11.054;2023-02-28T04:13:14;19.55;;;10.60;;
19446;SDS011;9862;49.462;11.054;2023-02-28T04:15:40;12.98;;;6.72;;
19446;SDS011;9862;49.462;11.054;2023-02-28T04:18:07;7.47;;;4.72;;
19446;SDS011;9862;49.462;11.054;2023-02-28T04:20:34;7.40;;;4.50;;
19446;SDS011;9862;49.462;11.054;2023-02-28T04:23:00;8.88;;;5.07;;
19446;SDS011;9862;49.462;11.054;2023-02-28T04:25:28;6.38;;;4.78;;
19446;SDS011;9862;49.462;11.054;2023-02-28T04:27:54;7.10;;;4.22;;
19446;SDS011;9862;49.462;11.054;2023-02-28T04:30:21;9.95;;;4.82;;
19446;SDS011;9862;49.462;11.054;2023-02-28T04:32:47;9.40;;;5.10;;
19446;SDS011;9862;49.462;11.054;2023-02-28T04:35:14;9.32;;;5.78;;
19446;SDS011;9862;49.462;11.054;2023-02-28T04:37:40;10.50;;;5.30;;
19446;SDS011;9862;49.462;11.054;2023-02-28T04:40:07;11.30;;;5.15;;
19446;SDS011;9862;49.462;11.054;2023-02-28T04:42:36;8.95;;;4.90;;
19446;SDS011;9862;49.462;11.054;2023-02-28T04:45:03;10.63;;;5.35;;
19446;SDS011;9862;49.462;11.054;2023-02-28T04:47:30;10.77;;;5.75;;
19446;SDS011;9862;49.462;11.054;2023-02-28T04:49:56;11.80;;;5.70;;
19446;SDS011;9862;49.462;11.054;2023-02-28T04:52:23;8.77;;;5.25;;
19446;SDS011;9862;49.462;11.054;2023-02-28T04:54:50;10.35;;;4.90;;
19446;SDS011;9862;49.462;11.054;2023-02-28T04:57:16;8.35;;;5.35;;
19446;SDS011;9862;49.462;11.054;2023-02-28T04:59:44;11.35;;;6.03;;
19446;SDS011;9862;49.462;11.054;2023-02-28T05:02:11;7.38;;;4.90;;
19446;SDS011;9862;49.462;11.054;2023-02-28T05:04:37;7.75;;;5.00;;
19446;SDS011;9862;49.462;11.054;2023-02-28T05:07:04;12.85;;;5.60;;
19446;SDS011;9862;49.462;11.054;2023-02-28T05:09:30;9.18;;;5.70;;
19446;SDS011;9862;49.462;11.054;2023-02-28T05:11:57;8.77;;;5.38;;
19446;SDS011;9862;49.462;11.054;2023-02-28T05:14:24;11.52;;;5.75;;
19446;SDS011;9862;49.462;11.054;2023-02-28T05:16:52;9.55;;;5.25;;
19446;SDS011;9862;49.462;11.054;2023-02-28T05:19:18;8.85;;;5.20;;
19446;SDS011;9862;49.462;11.054;2023-02-28T05:21:49;11.80;;;5.57;;
19446;SDS011;9862;49.462;11.054;2023-02-28T05:24:18;9.73;;;6.35;;
19446;SDS011;9862;49.462;11.054;2023-02-28T05:26:47;9.52;;;5.43;;
19446;SDS011;9862;49.462;11.054;2023-02-28T05:29:15;11.13;;;6.53;;
19446;SDS011;9862;49.462;11.054;2023-02-28T05:31:41;9.85;;;5.47;;
19446;SDS011;9862;49.462;11.054;2023-02-28T05:34:09;11.95;;;5.72;;
19446;SDS011;9862;49.462;11.054;2023-02-28T05:36:37;10.00;;;5.65;;
19446;SDS011;9862;49.462;11.054;2023-02-28T05:39:04;11.02;;;5.75;;
19446;SDS011;9862;49.462;11.054;2023-02-28T05:41:32;8.95;;;5.85;;
19446;SDS011;9862;49.462;11.054;2023-02-28T05:43:59;11.70;;;6.13;;
19446;SDS011;9862;49.462;11.054;2023-02-28T05:46:25;11.98;;;5.93;;
19446;SDS011;9862;49.462;11.054;2023-02-28T05:48:52;10.15;;;5.95;;
19446;SDS011;9862;49.462;11.054;2023-02-28T05:51:19;10.07;;;5.45;;
19446;SDS011;9862;49.462;11.054;2023-02-28T05:53:46;11.52;;;6.20;;
19446;SDS011;9862;49.462;11.054;2023-02-28T05:56:13;8.02;;;5.72;;
19446;SDS011;9862;49.462;11.054;2023-02-28T05:58:40;9.65;;;6.43;;
19446;SDS011;9862;49.462;11.054;2023-02-28T06:01:19;9.55;;;6.05;;
19446;SDS011;9862;49.462;11.054;2023-02-28T06:03:48;11.45;;;6.25;;
19446;SDS011;9862;49.462;11.054;2023-02-28T06:06:14;12.23;;;6.15;;
19446;SDS011;9862;49.462;11.054;2023-02-28T06:08:42;10.50;;;5.70;;
19446;SDS011;9862;49.462;11.054;2023-02-28T06:11:09;12.35;;;6.80;;
19446;SDS011;9862;49.462;11.054;2023-02-28T06:13:36;12.02;;;6.82;;
19446;SDS011;9862;49.462;11.054;2023-02-28T06:16:03;11.32;;;6.25;;
19446;SDS011;9862;49.462;11.054;2023-02-28T06:18:29;9.43;;;6.35;;
19446;SDS011;9862;49.462;11.054;2023-02-28T06:20:57;9.23;;;5.90;;
19446;SDS011;9862;49.462;11.054;2023-02-28T06:23:23;10.38;;;5.88;;
19446;SDS011;9862;49.462;11.054;2023-02-28T06:25:51;10.57;;;6.20;;
19446;SDS011;9862;49.462;11.054;2023-02-28T06:28:18;12.70;;;7.18;;
19446;SDS011;9862;49.462;11.054;2023-02-28T06:30:44;15.70;;;7.03;;
19446;SDS011;9862;49.462;11.054;2023-02-28T06:33:11;16.00;;;7.28;;
19446;SDS011;9862;49.462;11.054;2023-02-28T06:35:37;9.88;;;6.43;;
19446;SDS011;9862;49.462;11.054;2023-02-28T06:38:04;8.52;;;5.95;;
19446;SDS011;9862;49.462;11.054;2023-02-28T06:40:31;9.88;;;5.32;;
19446;SDS011;9862;49.462;11.054;2023-02-28T06:43:01;10.60;;;6.28;;
19446;SDS011;9862;49.462;11.054;2023-02-28T06:45:28;12.55;;;5.68;;
19446;SDS011;9862;49.462;11.054;2023-02-28T06:47:54;9.95;;;5.75;;
19446;SDS011;9862;49.462;11.054;2023-02-28T06:50:21;9.52;;;5.97;;
19446;SDS011;9862;49.462;11.054;2023-02-28T06:52:47;10.65;;;5.78;;
19446;SDS011;9862;49.462;11.054;2023-02-28T06:55:19;11.40;;;5.60;;
19446;SDS011;9862;49.462;11.054;2023-02-28T06:57:45;9.25;;;5.35;;
19446;SDS011;9862;49.462;11.054;2023-02-28T07:00:14;11.07;;;5.07;;
19446;SDS011;9862;49.462;11.054;2023-02-28T07:02:41;10.00;;;6.05;;
19446;SDS011;9862;49.462;11.054;2023-02-28T07:05:07;11.73;;;5.93;;
19446;SDS011;9862;49.462;11.054;2023-02-28T07:07:34;12.40;;;6.05;;
19446;SDS011;9862;49.462;11.054;2023-02-28T07:10:03;9.77;;;6.05;;
19446;SDS011;9862;49.462;11.054;2023-02-28T07:12:30;8.30;;;5.20;;
19446;SDS011;9862;49.462;11.054;2023-02-28T07:14:56;8.77;;;5.40;;
19446;SDS011;9862;49.462;11.054;2023-02-28T07:17:24;8.93;;;5.45;;
19446;SDS011;9862;49.462;11.054;2023-02-28T07:19:50;10.15;;;6.25;;
19446;SDS011;9862;49.462;11.054;2023-02-28T07:22:17;11.88;;;6.05;;
19446;SDS011;9862;49.462;11.054;2023-02-28T07:24:43;13.70;;;6.18;;
19446;SDS011;9862;49.462;11.054;2023-02-28T07:27:10;8.93;;;5.35;;
19446;SDS011;9862;49.462;11.054;2023-02-28T07:29:36;11.85;;;6.10;;
19446;SDS011;9862;49.462;11.054;2023-02-28T07:32:03;12.30;;;6.30;;
19446;SDS011;9862;49.462;11.054;2023-02-28T07:34:32;8.98;;;5.45;;
19446;SDS011;9862;49.462;11.054;2023-02-28T07:36:58;11.75;;;6.38;;
19446;SDS011;9862;49.462;11.054;2023-02-28T07:39:28;10.65;;;5.85;;
19446;SDS011;9862;49.462;11.054;2023-02-28T07:41:55;12.95;;;5.90;;
19446;SDS011;9862;49.462;11.054;2023-02-28T07:44:21;10.55;;;5.57;;
19446;SDS011;9862;49.462;11.054;2023-02-28T07:46:48;10.68;;;6.93;;
19446;SDS011;9862;49.462;11.054;2023-02-28T07:49:15;12.30;;;6.32;;
19446;SDS011;9862;49.462;11.054;2023-02-28T07:51:42;15.05;;;6.93;;
19446;SDS011;9862;49.462;11.054;2023-02-28T07:54:09;9.82;;;5.82;;
19446;SDS011;9862;49.462;11.054;2023-02-28T07:56:36;17.10;;;6.60;;
19446;SDS011;9862;49.462;11.054;2023-02-28T07:59:02;10.48;;;6.45;;
19446;SDS011;9862;49.462;11.054;2023-02-28T08:01:29;11.18;;;6.80;;
19446;SDS011;9862;49.462;11.054;2023-02-28T08:03:55;10.50;;;6.20;;
19446;SDS011;9862;49.462;11.054;2023-02-28T08:06:22;12.73;;;7.05;;
19446;SDS011;9862;49.462;11.054;2023-02-28T08:08:52;10.95;;;6.07;;
19446;SDS011;9862;49.462;11.054;2023-02-28T08:11:21;11.52;;;6.45;;
19446;SDS011;9862;49.462;11.054;2023-02-28T08:13:47;10.55;;;5.90;;
19446;SDS011;9862;49.462;11.054;2023-02-28T08:16:14;9.65;;;6.22;;
19446;SDS011;9862;49.462;11.054;2023-02-28T08:18:46;13.45;;;7.18;;
19446;SDS011;9862;49.462;11.054;2023-02-28T08:21:12;10.52;;;6.15;;
19446;SDS011;9862;49.462;11.054;2023-02-28T08:23:39;11.50;;;7.13;;
19446;SDS011;9862;49.462;11.054;2023-02-28T08:26:07;9.80;;;6.90;;
19446;SDS011;9862;49.462;11.054;2023-02-28T08:28:33;10.93;;;6.90;;
19446;SDS011;9862;49.462;11.054;2023-02-28T08:31:00;10.20;;;6.57;;
19446;SDS011;9862;49.462;11.054;2023-02-28T08:33:27;10.40;;;6.78;;
19446;SDS011;9862;49.462;11.054;2023-02-28T08:35:53;10.32;;;6.55;;
19446;SDS011;9862;49.462;11.054;2023-02-28T08:38:20;11.68;;;6.32;;
19446;SDS011;9862;49.462;11.054;2023-02-28T08:40:47;9.90;;;6.63;;
19446;SDS011;9862;49.462;11.054;2023-02-28T08:43:15;9.82;;;6.20;;
19446;SDS011;9862;49.462;11.054;2023-02-28T08:45:42;8.77;;;6.45;;
19446;SDS011;9862;49.462;11.054;2023-02-28T08:48:08;11.48;;;7.13;;
19446;SDS011;9862;49.462;11.054;2023-02-28T08:50:35;13.38;;;6.53;;
19446;SDS011;9862;49.462;11.054;2023-02-28T08:53:01;12.80;;;6.95;;
19446;SDS011;9862;49.462;11.054;2023-02-28T08:55:28;15.63;;;6.72;;
19446;SDS011;9862;49.462;11.054;2023-02-28T08:57:54;11.88;;;6.80;;
19446;SDS011;9862;49.462;11.054;2023-02-28T09:00:23;12.73;;;7.13;;
19446;SDS011;9862;49.462;11.054;2023-02-28T09:02:49;10.80;;;7.00;;
19446;SDS011;9862;49.462;11.054;2023-02-28T09:05:16;13.65;;;7.25;;
19446;SDS011;9862;49.462;11.054;2023-02-28T09:07:43;11.63;;;7.07;;
19446;SDS011;9862;49.462;11.054;2023-02-28T09:10:10;10.82;;;6.47;;
19446;SDS011;9862;49.462;11.054;2023-02-28T09:12:37;12.77;;;7.32;;
19446;SDS011;9862;49.462;11.054;2023-02-28T09:15:04;13.27;;;7.15;;
19446;SDS011;9862;49.462;11.054;2023-02-28T09:17:33;13.77;;;6.95;;
19446;SDS011;9862;49.462;11.054;2023-02-28T09:20:00;10.25;;;6.65;;
19446;SDS011;9862;49.462;11.054;2023-02-28T09:22:29;12.55;;;7.00;;
19446;SDS011;9862;49.462;11.054;2023-02-28T09:24:56;11.80;;;7.18;;
19446;SDS011;9862;49.462;11.054;2023-02-28T09:27:22;12.18;;;6.50;;
19446;SDS011;9862;49.462;11.054;2023-02-28T09:29:49;13.77;;;7.65;;
19446;SDS011;9862;49.462;11.054;2023-02-28T09:32:15;12.32;;;6.85;;
19446;SDS011;9862;49.462;11.054;2023-02-28T09:34:44;14.23;;;7.28;;
19446;SDS011;9862;49.462;11.054;2023-02-28T09:37:10;11.30;;;6.93;;
19446;SDS011;9862;49.462;11.054;2023-02-28T09:39:37;14.07;;;7.38;;
19446;SDS011;9862;49.462;11.054;2023-02-28T09:42:03;10.50;;;6.57;;
19446;SDS011;9862;49.462;11.054;2023-02-28T09:44:34;12.43;;;7.43;;
19446;SDS011;9862;49.462;11.054;2023-02-28T09:47:05;12.38;;;7.10;;
19446;SDS011;9862;49.462;11.054;2023-02-28T09:49:38;10.48;;;6.75;;
19446;SDS011;9862;49.462;11.054;2023-02-28T09:52:11;14.43;;;7.45;;
19446;SDS011;9862;49.462;11.054;2023-02-28T09:54:40;11.00;;;7.32;;
19446;SDS011;9862;49.462;11.054;2023-02-28T09:57:08;13.48;;;7.28;;
19446;SDS011;9862;49.462;11.054;2023-02-28T09:59:47;12.27;;;6.60;;
19446;SDS011;9862;49.462;11.054;2023-02-28T10:02:38;11.82;;;6.82;;
19446;SDS011;9862;49.462;11.054;2023-02-28T10:05:13;10.00;;;5.57;;
19446;SDS011;9862;49.462;11.054;2023-02-28T10:07:48;10.57;;;6.80;;
19446;SDS011;9862;49.462;11.054;2023-02-28T10:10:24;11.15;;;6.35;;
19446;SDS011;9862;49.462;11.054;2023-02-28T10:12:55;11.02;;;6.32;;
19446;SDS011;9862;49.462;11.054;2023-02-28T10:15:24;9.77;;;5.90;;
19446;SDS011;9862;49.462;11.054;2023-02-28T10:17:54;11.15;;;6.72;;
19446;SDS011;9862;49.462;11.054;2023-02-28T10:20:25;11.75;;;6.45;;
19446;SDS011;9862;49.462;11.054;2023-02-28T10:22:58;11.90;;;7.45;;
19446;SDS011;9862;49.462;11.054;2023-02-28T10:25:32;11.80;;;6.90;;
19446;SDS011;9862;49.462;11.054;2023-02-28T10:28:00;10.15;;;6.25;;
19446;SDS011;9862;49.462;11.054;2023-02-28T10:30:31;13.63;;;6.53;;
19446;SDS011;9862;49.462;11.054;2023-02-28T10:32:57;11.55;;;6.65;;
19446;SDS011;9862;49.462;11.054;2023-02-28T10:35:25;10.55;;;6.30;;
19446;SDS011;9862;49.462;11.054;2023-02-28T10:37:53;10.35;;;6.80;;
19446;SDS011;9862;49.462;11.054;2023-02-28T10:40:28;9.20;;;6.60;;
19446;SDS011;9862;49.462;11.054;2023-02-28T10:42:59;12.05;;;6.57;;
19446;SDS011;9862;49.462;11.054;2023-02-28T10:45:28;11.23;;;6.45;;
19446;SDS011;9862;49.462;11.054;2023-02-28T10:47:57;8.90;;;5.03;;
19446;SDS011;9862;49.462;11.054;2023-02-28T10:50:26;12.38;;;6.43;;
19446;SDS011;9862;49.462;11.054;2023-02-28T10:52:57;11.18;;;6.22;;
19446;SDS011;9862;49.462;11.054;2023-02-28T10:55:36;12.20;;;6.50;;
19446;SDS011;9862;49.462;11.054;2023-02-28T10:58:07;11.13;;;6.05;;
19446;SDS011;9862;49.462;11.054;2023-02-28T11:00:47;10.80;;;5.65;;
19446;SDS011;9862;49.462;11.054;2023-02-28T11:03:23;10.48;;;5.95;;
19446;SDS011;9862;49.462;11.054;2023-02-28T11:05:51;10.88;;;6.40;;
19446;SDS011;9862;49.462;11.054;2023-02-28T11:08:18;13.00;;;6.43;;
19446;SDS011;9862;49.462;11.054;2023-02-28T11:10:46;8.93;;;5.60;;
19446;SDS011;9862;49.462;11.054;2023-02-28T11:13:16;15.80;;;6.90;;
19446;SDS011;9862;49.462;11.054;2023-02-28T11:15:49;9.98;;;6.82;;
19446;SDS011;9862;49.462;11.054;2023-02-28T11:18:24;13.65;;;6.60;;
19446;SDS011;9862;49.462;11.054;2023-02-28T11:20:55;10.05;;;6.50;;
19446;SDS011;9862;49.462;11.054;2023-02-28T11:23:26;9.50;;;5.82;;
19446;SDS011;9862;49.462;11.054;2023-02-28T11:25:57;11.48;;;6.70;;
19446;SDS011;9862;49.462;11.054;2023-02-28T11:28:27;9.25;;;5.32;;
19446;SDS011;9862;49.462;11.054;2023-02-28T11:31:00;11.25;;;6.38;;
19446;SDS011;9862;49.462;11.054;2023-02-28T11:33:31;9.18;;;5.60;;
19446;SDS011;9862;49.462;11.054;2023-02-28T11:35:59;10.65;;;6.03;;
19446;SDS011;9862;49.462;11.054;2023-02-28T11:38:28;11.68;;;6.38;;
19446;SDS011;9862;49.462;11.054;2023-02-28T11:41:08;11.90;;;6.47;;
19446;SDS011;9862;49.462;11.054;2023-02-28T11:43:51;9.90;;;6.85;;
19446;SDS011;9862;49.462;11.054;2023-02-28T11:46:28;10.30;;;6.30;;
19446;SDS011;9862;49.462;11.054;2023-02-28T11:49:02;13.55;;;6.53;;
19446;SDS011;9862;49.462;11.054;2023-02-28T11:51:42;9.98;;;5.68;;
19446;SDS011;9862;49.462;11.054;2023-02-28T11:54:22;10.95;;;5.90;;
19446;SDS011;9862;49.462;11.054;2023-02-28T11:56:58;10.75;;;6.28;;
19446;SDS011;9862;49.462;11.054;2023-02-28T11:59:41;9.38;;;5.90;;
19446;SDS011;9862;49.462;11.054;2023-02-28T12:02:23;12.00;;;6.20;;
19446;SDS011;9862;49.462;11.054;2023-02-28T12:04:57;10.80;;;6.50;;
19446;SDS011;9862;49.462;11.054;2023-02-28T12:07:36;10.15;;;6.55;;
19446;SDS011;9862;49.462;11.054;2023-02-28T12:10:14;12.15;;;7.13;;
19446;SDS011;9862;49.462;11.054;2023-02-28T12:12:50;12.20;;;6.78;;
19446;SDS011;9862;49.462;11.054;2023-02-28T12:15:41;11.75;;;6.45;;
19446;SDS011;9862;49.462;11.054;2023-02-28T12:18:37;10.98;;;6.40;;
19446;SDS011;9862;49.462;11.054;2023-02-28T12:21:18;11.38;;;6.30;;
19446;SDS011;9862;49.462;11.054;2023-02-28T12:24:00;9.38;;;5.88;;
19446;SDS011;9862;49.462;11.054;2023-02-28T12:26:38;14.43;;;6.75;;
19446;SDS011;9862;49.462;11.054;2023-02-28T12:29:12;9.75;;;5.85;;
19446;SDS011;9862;49.462;11.054;2023-02-28T12:31:45;9.48;;;6.32;;
19446;SDS011;9862;49.462;11.054;2023-02-28T12:34:16;10.20;;;5.65;;
19446;SDS011;9862;49.462;11.054;2023-02-28T12:36:46;12.48;;;6.40;;
19446;SDS011;9862;49.462;11.054;2023-02-28T12:39:15;12.38;;;6.32;;
19446;SDS011;9862;49.462;11.054;2023-02-28T12:41:50;11.10;;;6.30;;
19446;SDS011;9862;49.462;11.054;2023-02-28T12:44:26;9.57;;;6.18;;
19446;SDS011;9862;49.462;11.054;2023-02-28T12:46:58;11.05;;;6.45;;
19446;SDS011;9862;49.462;11.054;2023-02-28T12:49:31;10.98;;;6.82;;
19446;SDS011;9862;49.462;11.054;2023-02-28T12:52:00;13.35;;;6.38;;
19446;SDS011;9862;49.462;11.054;2023-02-28T12:54:30;14.13;;;6.90;;
19446;SDS011;9862;49.462;11.054;2023-02-28T12:57:02;11.07;;;6.25;;
19446;SDS011;9862;49.462;11.054;2023-02-28T12:59:39;12.23;;;6.43;;
19446;SDS011;9862;49.462;11.054;2023-02-28T13:05:32;11.65;;;6.15;;
19446;SDS011;9862;49.462;11.054;2023-02-28T13:08:24;11.30;;;7.25;;
19446;SDS011;9862;49.462;11.054;2023-02-28T13:11:22;10.00;;;6.07;;
19446;SDS011;9862;49.462;11.054;2023-02-28T13:13:56;11.70;;;6.80;;
19446;SDS011;9862;49.462;11.054;2023-02-28T13:16:26;11.52;;;7.18;;
19446;SDS011;9862;49.462;11.054;2023-02-28T13:18:52;12.73;;;6.95;;
19446;SDS011;9862;49.462;11.054;2023-02-28T13:21:41;11.82;;;6.30;;
19446;SDS011;9862;49.462;11.054;2023-02-28T13:24:10;10.55;;;6.78;;
19446;SDS011;9862;49.462;11.054;2023-02-28T13:29:41;11.75;;;7.00;;
19446;SDS011;9862;49.462;11.054;2023-02-28T13:32:27;10.70;;;6.57;;
19446;SDS011;9862;49.462;11.054;2023-02-28T13:35:14;18.45;;;7.75;;
19446;SDS011;9862;49.462;11.054;2023-02-28T13:38:09;12.05;;;7.03;;
19446;SDS011;9862;49.462;11.054;2023-02-28T13:40:47;13.02;;;6.60;;
19446;SDS011;9862;49.462;11.054;2023-02-28T13:43:15;10.90;;;6.85;;
19446;SDS011;9862;49.462;11.054;2023-02-28T13:48:35;11.25;;;6.82;;
19446;SDS011;9862;49.462;11.054;2023-02-28T13:54:11;13.20;;;7.20;;
19446;SDS011;9862;49.462;11.054;2023-02-28T13:56:52;10.10;;;7.07;;
19446;SDS011;9862;49.462;11.054;2023-02-28T13:59:31;11.70;;;7.22;;
19446;SDS011;9862;49.462;11.054;2023-02-28T14:05:04;13.05;;;7.30;;
19446;SDS011;9862;49.462;11.054;2023-02-28T14:07:32;11.40;;;6.65;;
19446;SDS011;9862;49.462;11.054;2023-02-28T14:10:05;14.88;;;7.90;;
19446;SDS011;9862;49.462;11.054;2023-02-28T14:12:52;11.63;;;6.93;;
19446;SDS011;9862;49.462;11.054;2023-02-28T14:15:28;12.68;;;7.50;;
19446;SDS011;9862;49.462;11.054;2023-02-28T14:18:12;11.25;;;6.93;;
19446;SDS011;9862;49.462;11.054;2023-02-28T14:20:43;11.55;;;7.05;;
19446;SDS011;9862;49.462;11.054;2023-02-28T14:23:14;11.90;;;7.45;;
19446;SDS011;9862;49.462;11.054;2023-02-28T14:25:47;12.45;;;7.55;;
19446;SDS011;9862;49.462;11.054;2023-02-28T14:28:30;12.43;;;6.93;;
19446;SDS011;9862;49.462;11.054;2023-02-28T14:31:10;12.75;;;7.57;;
19446;SDS011;9862;49.462;11.054;2023-02-28T14:33:42;11.25;;;6.57;;
19446;SDS011;9862;49.462;11.054;2023-02-28T14:36:22;13.32;;;6.53;;
19446;SDS011;9862;49.462;11.054;2023-02-28T14:38:52;10.43;;;6.78;;
19446;SDS011;9862;49.462;11.054;2023-02-28T14:41:22;16.15;;;8.25;;
19446;SDS011;9862;49.462;11.054;2023-02-28T14:43:55;10.63;;;7.72;;
19446;SDS011;9862;49.462;11.054;2023-02-28T14:46:23;11.98;;;7.60;;
19446;SDS011;9862;49.462;11.054;2023-02-28T14:48:54;13.25;;;7.47;;
19446;SDS011;9862;49.462;11.054;2023-02-28T14:51:22;15.25;;;7.75;;
19446;SDS011;9862;49.462;11.054;2023-02-28T14:53:51;14.63;;;7.72;;
19446;SDS011;9862;49.462;11.054;2023-02-28T14:56:23;13.63;;;8.32;;
19446;SDS011;9862;49.462;11.054;2023-02-28T14:58:52;16.95;;;8.40;;
19446;SDS011;9862;49.462;11.054;2023-02-28T15:01:20;11.10;;;7.47;;
19446;SDS011;9862;49.462;11.054;2023-02-28T15:03:52;12.80;;;6.88;;
19446;SDS011;9862;49.462;11.054;2023-02-28T15:06:25;12.15;;;7.50;;
19446;SDS011;9862;49.462;11.054;2023-02-28T15:09:06;11.43;;;7.15;;
19446;SDS011;9862;49.462;11.054;2023-02-28T15:11:33;10.05;;;6.55;;
19446;SDS011;9862;49.462;11.054;2023-02-28T15:14:01;11.00;;;7.00;;
19446;SDS011;9862;49.462;11.054;2023-02-28T15:16:29;11.70;;;7.53;;
19446;SDS011;9862;49.462;11.054;2023-02-28T15:19:00;11.77;;;7.38;;